createdAt,value
2022-08-19T00:02:05.810Z,100978.13
2022-08-19T00:08:09.318Z,100974.66
2022-08-19T00:14:14.376Z,100982.06
2022-08-19T00:20:23.431Z,100981.59
2022-08-19T00:26:27.638Z,100992.25
2022-08-19T00:32:31.411Z,100988.91
2022-08-19T00:38:43.952Z,59315.84
2022-08-19T00:44:47.580Z,59315.84
2022-08-19T00:50:52.492Z,59315.84
2022-08-19T00:56:57.437Z,59315.84
2022-08-19T01:03:01.134Z,59315.84
2022-08-19T01:09:05.378Z,59315.84
2022-08-19T01:15:14.238Z,59315.84
2022-08-19T01:21:24.897Z,59315.84
2022-08-19T01:27:43.156Z,100988.91
2022-08-19T01:33:48.113Z,100964.97
2022-08-19T01:39:51.790Z,100959.75
2022-08-19T01:45:56.783Z,100960.81
2022-08-19T01:52:02.616Z,100943.75
2022-08-19T01:58:07.967Z,100942.00
2022-08-19T02:04:12.881Z,100939.22
2022-08-19T02:10:19.804Z,100939.03
2022-08-19T02:16:24.333Z,100916.81
2022-08-19T02:22:29.391Z,100922.38
2022-08-19T02:28:33.434Z,100922.72
2022-08-19T02:34:37.045Z,100913.16
2022-08-19T02:40:41.970Z,100896.09
2022-08-19T02:46:47.089Z,100891.91
2022-08-19T02:52:50.632Z,100900.25
2022-08-19T02:58:56.171Z,100905.50
2022-08-19T03:04:59.740Z,100900.78
2022-08-19T03:11:03.299Z,100902.19
2022-08-19T03:17:09.024Z,100891.06
2022-08-19T03:23:13.633Z,100883.84
2022-08-19T03:29:30.463Z,100888.81
2022-08-19T03:35:37.711Z,100886.44
2022-08-19T03:41:44.927Z,100892.03
2022-08-19T03:47:49.511Z,59315.84
2022-08-19T03:53:55.367Z,59315.84
2022-08-19T04:00:13.015Z,59315.84
2022-08-19T04:06:19.560Z,59315.84
2022-08-19T04:12:24.499Z,59315.84
2022-08-19T04:18:33.601Z,59315.84
2022-08-19T04:24:40.070Z,59315.84
2022-08-19T04:30:48.508Z,59315.84
2022-08-19T04:36:53.421Z,59315.84
2022-08-19T04:42:57.466Z,59315.84
2022-08-19T04:49:10.389Z,59315.84
2022-08-19T04:55:17.710Z,59315.84
2022-08-19T05:01:24.184Z,100885.94
2022-08-19T05:07:29.304Z,100884.34
2022-08-19T05:13:32.819Z,100888.13
2022-08-19T05:19:56.002Z,100882.38
2022-08-19T05:26:00.981Z,100880.31
2022-08-19T05:32:06.557Z,100884.53
2022-08-19T05:38:11.950Z,100897.25
2022-08-19T05:44:17.984Z,100902.31
2022-08-19T05:50:21.806Z,100908.22
2022-08-19T05:56:25.387Z,100901.97
2022-08-19T06:02:32.546Z,100886.44
2022-08-19T06:08:37.285Z,100893.47
2022-08-19T06:14:41.774Z,100894.69
2022-08-19T06:20:56.187Z,100884.06
2022-08-19T06:27:01.591Z,100888.09
2022-08-19T06:33:05.452Z,100891.56
2022-08-19T06:39:12.701Z,100873.44
2022-08-19T06:45:16.528Z,100880.25
2022-08-19T06:51:20.653Z,100861.25
2022-08-19T06:57:27.342Z,100866.34
2022-08-19T07:03:33.482Z,100873.13
2022-08-19T07:09:43.194Z,100876.44
2022-08-19T07:15:48.759Z,100876.97
2022-08-19T07:21:53.796Z,100877.69
2022-08-19T07:27:58.229Z,100864.59
2022-08-19T07:34:08.720Z,100860.44
2022-08-19T07:40:13.872Z,100860.06
2022-08-19T07:46:18.113Z,100877.53
2022-08-19T07:52:23.330Z,100881.72
2022-08-19T07:58:27.036Z,100877.00
2022-08-19T08:04:48.297Z,100872.13
2022-08-19T08:10:54.611Z,100883.09
2022-08-19T08:17:00.388Z,100883.63
2022-08-19T08:23:22.047Z,100876.66
2022-08-19T08:29:27.345Z,100875.44
2022-08-19T08:35:39.831Z,100875.94
2022-08-19T08:41:50.409Z,100862.84
2022-08-19T08:48:00.005Z,100864.78
2022-08-19T08:54:09.881Z,100868.09
2022-08-19T09:00:21.987Z,100867.94
2022-08-19T09:06:35.373Z,100867.56
2022-08-19T09:12:47.265Z,100868.44
2022-08-19T09:18:54.624Z,100870.19
2022-08-19T09:24:59.583Z,100856.41
2022-08-19T09:31:03.141Z,100855.53
2022-08-19T09:37:07.429Z,100863.03
2022-08-19T09:43:13.521Z,100860.59
2022-08-19T09:49:18.381Z,100854.31
2022-08-19T09:55:22.330Z,100841.25
2022-08-19T10:01:32.714Z,100852.91
2022-08-19T10:07:36.750Z,100834.78
2022-08-19T10:13:40.342Z,100854.50
2022-08-19T10:19:53.424Z,100860.59
2022-08-19T10:26:02.682Z,100852.06
2022-08-19T10:32:09.993Z,100865.81
2022-08-19T10:38:15.033Z,100855.34
2022-08-19T10:44:19.181Z,100879.28
2022-08-19T10:50:40.533Z,100882.06
2022-08-19T10:56:56.493Z,100878.25
2022-08-19T11:03:01.193Z,100855.38
2022-08-19T11:09:05.738Z,100841.41
2022-08-19T11:15:12.362Z,100823.25
2022-08-19T11:21:20.020Z,100811.44
2022-08-19T11:27:24.281Z,100821.72
2022-08-19T11:33:29.312Z,100848.03
2022-08-19T11:39:34.087Z,100857.94
2022-08-19T11:45:38.140Z,100890.19
2022-08-19T11:51:45.180Z,100820.81
2022-08-19T11:57:48.748Z,100795.00
2022-08-19T12:03:54.875Z,100789.25
2022-08-19T12:09:59.849Z,100779.81
2022-08-19T12:16:10.660Z,100776.16
2022-08-19T12:22:14.197Z,100766.22
2022-08-19T12:28:19.950Z,100768.84
2022-08-19T12:34:23.499Z,100764.06
2022-08-19T12:40:27.610Z,100772.91
2022-08-19T12:46:32.551Z,100765.06
2022-08-19T12:52:38.905Z,100759.41
2022-08-19T12:58:48.897Z,100759.00
2022-08-19T13:04:56.039Z,100748.78
2022-08-19T13:11:08.593Z,100745.44
2022-08-19T13:17:15.274Z,100739.25
2022-08-19T13:23:20.213Z,100736.56
2022-08-19T13:29:41.262Z,100736.56
2022-08-19T13:35:52.879Z,100744.97
2022-08-19T13:41:59.333Z,100739.03
2022-08-19T13:48:07.772Z,100718.63
2022-08-19T13:54:13.263Z,100705.53
2022-08-19T14:00:20.738Z,100697.47
2022-08-19T14:06:24.467Z,100693.47
2022-08-19T14:12:28.762Z,100691.41
2022-08-19T14:18:33.993Z,100671.09
2022-08-19T14:24:39.899Z,100653.69
2022-08-19T14:30:45.549Z,100666.41
2022-08-19T14:36:50.582Z,100679.59
2022-08-19T14:42:56.784Z,100688.84
2022-08-19T14:49:01.445Z,100685.72
2022-08-19T14:55:14.354Z,100692.34
2022-08-19T15:01:21.876Z,100709.00
2022-08-19T15:07:28.854Z,100745.31
2022-08-19T15:13:34.524Z,100687.53
2022-08-19T15:19:38.367Z,100671.50
2022-08-19T15:25:42.548Z,100650.88
2022-08-19T15:31:47.524Z,100655.84
2022-08-19T15:37:53.603Z,100652.31
2022-08-19T15:44:00.065Z,100672.38
2022-08-19T15:50:10.813Z,100669.31
2022-08-19T15:56:14.607Z,100679.25
2022-08-19T16:02:37.139Z,100689.94
2022-08-19T16:08:48.819Z,100697.88
2022-08-19T16:14:53.545Z,100703.28
2022-08-19T16:20:57.120Z,100682.56
2022-08-19T16:27:02.077Z,100692.63
2022-08-19T16:33:05.769Z,100691.81
2022-08-19T16:39:10.232Z,100699.50
2022-08-19T16:45:15.129Z,100706.63
2022-08-19T16:51:18.777Z,100695.97
2022-08-19T16:57:23.959Z,100702.41
2022-08-19T17:03:35.987Z,32399.91
2022-08-19T17:09:40.451Z,100699.66
2022-08-19T17:15:44.912Z,100712.72
2022-08-19T17:21:49.853Z,100709.94
2022-08-19T17:27:53.923Z,100722.13
2022-08-19T17:33:58.943Z,100716.91
2022-08-19T17:40:05.345Z,100715.34
2022-08-19T17:46:11.151Z,59315.84
2022-08-19T17:52:14.814Z,59315.84
2022-08-19T17:58:20.577Z,59315.84
2022-08-19T18:04:27.122Z,59315.84
2022-08-19T18:10:35.249Z,59315.84
2022-08-19T18:16:40.390Z,59315.84
2022-08-19T18:22:45.961Z,59315.84
2022-08-19T18:28:51.765Z,59315.84
2022-08-19T18:34:56.719Z,59315.84
2022-08-19T18:41:19.332Z,59315.84
2022-08-19T18:47:41.680Z,59315.84
2022-08-19T18:53:48.624Z,59315.84
2022-08-19T18:59:52.613Z,59315.84
2022-08-19T19:05:57.452Z,59315.84
2022-08-19T19:12:04.787Z,59315.84
2022-08-19T19:18:09.368Z,59315.84
2022-08-19T19:24:14.067Z,59315.84
2022-08-19T19:30:19.696Z,59315.84
2022-08-19T19:36:24.558Z,59315.84
2022-08-19T19:42:28.268Z,59315.84
2022-08-19T19:48:33.257Z,59315.84
2022-08-19T19:54:37.836Z,59315.84
2022-08-19T20:00:41.921Z,59315.84
2022-08-19T20:06:48.466Z,59315.84
2022-08-19T20:12:54.871Z,59315.84
2022-08-19T20:18:59.854Z,59315.84
2022-08-19T20:25:06.402Z,59315.84
2022-08-19T20:31:11.512Z,59315.84
2022-08-19T20:37:15.184Z,59315.84
2022-08-19T20:43:21.189Z,59315.84
2022-08-19T20:49:27.001Z,59315.84
2022-08-19T20:55:31.251Z,59315.84
2022-08-19T21:01:36.191Z,59315.84
2022-08-19T21:07:39.850Z,59315.84
2022-08-19T21:13:43.433Z,59315.84
2022-08-19T21:19:48.357Z,59315.84
2022-08-19T21:25:54.656Z,59315.84
2022-08-19T21:31:58.401Z,59315.84
2022-08-19T21:38:03.329Z,59315.84
2022-08-19T21:44:06.877Z,59315.84
2022-08-19T21:50:12.441Z,59315.84
2022-08-19T21:56:17.377Z,59315.84
2022-08-19T22:02:22.041Z,59315.84
2022-08-19T22:08:27.325Z,59315.84
2022-08-19T22:14:33.730Z,59315.84
2022-08-19T22:20:37.649Z,59315.84
2022-08-19T22:26:41.316Z,59315.84
2022-08-19T22:32:48.236Z,59315.84
2022-08-19T22:38:59.825Z,59315.84
2022-08-19T22:45:03.409Z,59315.84
2022-08-19T22:51:25.846Z,59315.84
2022-08-19T22:57:31.933Z,59315.84
2022-08-19T23:03:35.542Z,59315.84
2022-08-19T23:09:40.792Z,59315.84
2022-08-19T23:15:47.651Z,59315.84
2022-08-19T23:21:52.705Z,59315.84
2022-08-19T23:28:15.228Z,59315.84
2022-08-19T23:34:18.818Z,59315.84
2022-08-19T23:40:22.767Z,59315.84
2022-08-19T23:46:28.274Z,59315.84
2022-08-19T23:52:33.755Z,59315.84
2022-08-19T23:58:38.476Z,59315.84
